Latest Weather Observations for Cape Ferguson

IDQ60801

Issued at 11:02 pm EST Tuesday 28 June 2016 (issued every 30 minutes, with the page automatically refreshed every 10 minutes)

About weather observations | Map of weather stations | Latest weather observations for QLD | Other Formats
Station Details ID: 032182 Name: CAPE FERGUSON NTC AWS Lat: -19.28 Lon: 147.06 Height: 0.0 m
Data from the previous 72 hours. | See also: Recent months for locations in Queensland
Date/Time
EST
Temp
°C
App
Temp
°C
Dew
Point
°C
Rel
Hum
%
Delta-T
°C
Wind Press
QNH
hPa
Press
MSL
hPa
Rain since
9am
mm
Dir  Spd
km/h
Gust
km/h
Spd
kts
Gust
kts
28/11:00pm 19.8 - - - - S 24 30 13 16 1023.0 1023.0 -
28/10:30pm 19.6 - - - - S 20 26 11 14 1023.1 1023.1 -
28/10:00pm 20.0 - - - - S 24 32 13 17 1022.9 1022.9 -
28/09:30pm 20.4 - - - - S 20 28 11 15 1022.7 1022.7 -
28/09:00pm 20.4 - - - - SSW 19 26 10 14 1022.4 1022.4 -
28/08:30pm 19.2 - - - - W 7 15 4 8 1022.0 1022.0 -
28/08:00pm 20.6 - - - - SSW 15 19 8 10 1021.7 1021.7 -
28/07:30pm 20.8 - - - - SSW 15 20 8 11 1021.5 1021.5 -
28/07:00pm 21.4 - - - - S 24 28 13 15 1021.2 1021.2 -
28/06:30pm 22.0 - - - - SSE 26 32 14 17 1020.8 1020.8 -
28/06:00pm 22.4 - - - - SSE 28 35 15 19 1020.2 1020.2 -
28/05:30pm 22.9 - - - - SSE 28 32 15 17 1019.7 1019.7 -
28/05:00pm 23.2 - - - - SSE 26 32 14 17 1019.2 1019.2 -
28/04:30pm 23.3 - - - - SSE 24 32 13 17 1019.1 1019.1 -
28/04:00pm 23.4 - - - - SSE 26 33 14 18 1018.9 1018.9 -
28/03:30pm 23.3 - - - - SSE 28 32 15 17 1018.8 1018.8 -
28/03:00pm 23.1 - - - - SSE 28 33 15 18 1018.7 1018.7 -
28/02:30pm 22.9 - - - - SSE 24 30 13 16 1018.6 1018.6 -
28/02:00pm 22.3 - - - - SSE 22 28 12 15 1018.8 1018.8 -
28/01:30pm 21.7 - - - - SSE 20 26 11 14 1019.0 1019.0 -
28/01:00pm 21.1 - - - - SE 22 26 12 14 1019.6 1019.6 -
28/12:30pm 20.8 - - - - SE 26 32 14 17 1020.0 1020.0 -
28/12:00pm 20.4 - - - - SSE 22 26 12 14 1020.1 1020.1 -
28/11:30am 19.8 - - - - SSE 26 32 14 17 1020.2 1020.2 -
28/11:00am 19.3 - - - - SSE 28 32 15 17 1020.5 1020.5 -
28/10:30am 18.9 - - - - SSE 30 37 16 20 1020.7 1020.7 -
28/10:00am 18.9 - - - - SSE 28 35 15 19 1020.9 1020.9 -
28/09:30am 18.8 - - - - SSE 26 32 14 17 1020.7 1020.7 -
28/09:00am 18.7 - - - - S 24 35 13 19 1020.7 1020.7 -
28/08:30am 18.5 - - - - SW 13 17 7 9 1020.3 1020.3 -
28/08:00am 18.8 - - - - SSW 15 24 8 13 1019.9 1019.9 -
28/07:30am 18.8 - - - - SW 7 13 4 7 1019.6 1019.6 -
28/07:00am 18.6 - - - - SSW 13 20 7 11 1019.2 1019.2 -
28/06:30am 19.6 - - - - S 20 30 11 16 1018.8 1018.8 -
28/06:00am 20.1 - - - - SSW 11 15 6 8 1018.4 1018.4 -
28/05:30am 20.4 - - - - SSW 22 26 12 14 1017.9 1017.9 -
28/05:00am 20.5 - - - - S 17 26 9 14 1017.5 1017.5 -
28/04:30am 20.8 - - - - S 24 32 13 17 1017.3 1017.3 -
28/04:00am 21.3 - - - - SSW 17 22 9 12 1017.0 1017.0 -
28/03:30am 21.9 - - - - S 22 30 12 16 1016.9 1016.9 -
28/03:00am 22.2 - - - - S 22 30 12 16 1017.0 1017.0 -
28/02:30am 22.7 - - - - SSE 26 35 14 19 1017.0 1017.0 -
28/02:00am 23.2 - - - - S 28 35 15 19 1017.2 1017.2 -
28/01:30am 23.5 - - - - S 22 30 12 16 1017.2 1017.2 -
28/01:00am 23.7 - - - - SSE 24 30 13 16 1017.1 1017.1 -
28/12:30am 23.4 - - - - WSW 6 13 3 7 1017.0 1017.0 -
28/12:00am 23.1 - - - - W 6 7 3 4 1017.0 1017.0 -
 
Date/Time
EST
Temp
°C
App
Temp
°C
Dew
Point
°C
Rel
Hum
%
Delta-T
°C
Wind Press
QNH
hPa
Press
MSL
hPa
Rain since
9am
mm
Dir  Spd
km/h
Gust
km/h
Spd
kts
Gust
kts
27/11:30pm 23.0 - - - - W 7 11 4 6 1017.1 1017.1 -
27/11:00pm 22.9 - - - - WNW 6 7 3 4 1017.1 1017.1 -
27/10:30pm 23.5 - - - - WSW 7 9 4 5 1016.9 1016.9 -
27/10:00pm 23.8 - - - - NW 4 4 2 2 1016.6 1016.6 -
27/09:30pm 23.9 - - - - NW 4 6 2 3 1016.7 1016.7 -
27/09:00pm 23.3 - - - - NW 6 7 3 4 1016.4 1016.4 -
27/08:30pm 23.5 - - - - WNW 6 7 3 4 1016.3 1016.3 -
27/08:00pm 23.9 - - - - WNW 7 9 4 5 1016.3 1016.3 -
27/07:30pm 24.5 - - - - SE 2 6 1 3 1016.0 1016.0 -
27/07:00pm 25.0 - - - - NNW 7 11 4 6 1015.8 1015.8 -
27/06:30pm 24.7 - - - - WSW 2 6 1 3 1015.5 1015.5 -
27/06:00pm 24.6 - - - - NNE 2 7 1 4 1015.3 1015.3 -
27/05:30pm 24.8 - - - - W 4 9 2 5 1015.1 1015.1 -
27/05:00pm 25.0 - - - - NNE 6 13 3 7 1014.7 1014.7 -
27/04:30pm 24.7 - - - - NE 9 17 5 9 1014.5 1014.5 -
27/04:00pm 24.8 - - - - ENE 7 19 4 10 1014.2 1014.2 -
27/03:30pm 24.9 - - - - ENE 7 15 4 8 1014.2 1014.2 -
27/03:00pm 24.6 - - - - ENE 11 15 6 8 1014.2 1014.2 -
27/02:30pm 24.3 - - - - ENE 11 17 6 9 1014.1 1014.1 -
27/02:00pm 23.9 - - - - E 9 11 5 6 1014.4 1014.4 -
27/01:30pm 23.7 - - - - E 7 9 4 5 1014.7 1014.7 -
27/01:00pm 23.5 - - - - E 7 9 4 5 1015.1 1015.1 -
27/12:30pm 23.6 - - - - ESE 4 7 2 4 1015.4 1015.4 -
27/12:00pm 23.4 - - - - SSW 2 4 1 2 1016.0 1016.0 -
27/11:30am 23.0 - - - - SSE 9 11 5 6 1016.3 1016.3 -
27/11:00am 22.9 - - - - SSE 9 11 5 6 1016.4 1016.4 -
27/10:30am 22.9 - - - - SE 11 13 6 7 1016.6 1016.6 -
27/10:00am 22.9 - - - - ESE 7 9 4 5 1016.7 1016.7 -
27/09:30am 22.7 - - - - SE 7 9 4 5 1016.8 1016.8 -
27/09:00am 22.6 - - - - SSE 6 7 3 4 1016.8 1016.8 -
27/08:30am 22.2 - - - - SSE 7 9 4 5 1016.6 1016.6 -
27/08:00am 22.2 - - - - SE 9 11 5 6 1016.4 1016.4 -
27/07:30am 22.2 - - - - SE 7 11 4 6 1016.0 1016.0 -
27/07:00am 22.6 - - - - SSE 11 13 6 7 1015.9 1015.9 -
27/06:30am 23.0 - - - - SSE 4 7 2 4 1015.5 1015.5 -
27/06:00am 23.1 - - - - SSE 9 13 5 7 1015.5 1015.5 -
27/05:30am 23.0 - - - - SSE 11 13 6 7 1015.1 1015.1 -
27/05:00am 23.6 - - - - ESE 11 13 6 7 1015.0 1015.0 -
27/04:30am 23.5 - - - - E 13 15 7 8 1014.7 1014.7 -
27/04:00am 23.6 - - - - ENE 13 17 7 9 1014.5 1014.5 -
27/03:30am 23.5 - - - - E 13 17 7 9 1014.6 1014.6 -
27/03:00am 23.5 - - - - E 15 19 8 10 1014.7 1014.7 -
27/02:30am 23.4 - - - - E 19 20 10 11 1014.7 1014.7 -
27/02:00am 23.4 - - - - E 17 19 9 10 1015.0 1015.0 -
27/01:30am 23.5 - - - - E 17 20 9 11 1015.3 1015.3 -
27/01:00am 23.4 - - - - ESE 19 22 10 12 1015.5 1015.5 -
27/12:30am 23.4 - - - - E 20 24 11 13 1015.6 1015.6 -
27/12:00am 23.3 - - - - E 22 24 12 13 1015.7 1015.7 -
 
Date/Time
EST
Temp
°C
App
Temp
°C
Dew
Point
°C
Rel
Hum
%
Delta-T
°C
Wind Press
QNH
hPa
Press
MSL
hPa
Rain since
9am
mm
Dir  Spd
km/h
Gust
km/h
Spd
kts
Gust
kts
26/11:30pm 23.3 - - - - ESE 22 24 12 13 1015.7 1015.7 -
26/11:00pm 23.4 - - - - E 22 26 12 14 1015.7 1015.7 -
26/10:30pm 23.3 - - - - E 22 26 12 14 1015.8 1015.8 -
26/10:00pm 23.4 - - - - E 22 26 12 14 1016.0 1016.0 -
26/09:30pm 23.3 - - - - E 20 24 11 13 1016.1 1016.1 -
26/09:00pm 23.3 - - - - ESE 20 26 11 14 1016.1 1016.1 -
26/08:30pm 23.1 - - - - ESE 20 24 11 13 1016.0 1016.0 -
26/08:00pm 23.1 - - - - ESE 20 26 11 14 1015.8 1015.8 -
26/07:30pm 23.0 - - - - ESE 19 24 10 13 1015.7 1015.7 -
26/07:00pm 22.7 - - - - SE 20 26 11 14 1015.6 1015.6 -
26/06:30pm 22.6 - - - - ESE 20 24 11 13 1015.4 1015.4 -
26/06:00pm 22.5 - - - - ESE 22 26 12 14 1015.1 1015.1 -
26/05:30pm 22.6 - - - - ESE 24 28 13 15 1014.8 1014.8 -
26/05:00pm 22.5 - - - - ESE 22 28 12 15 1014.7 1014.7 -
26/04:30pm 22.5 - - - - ESE 22 26 12 14 1014.5 1014.5 -
26/04:00pm 22.5 - - - - ESE 22 26 12 14 1014.3 1014.3 -
26/03:30pm 22.4 - - - - ESE 20 26 11 14 1014.4 1014.4 -
26/03:00pm 22.2 - - - - ESE 20 24 11 13 1014.5 1014.5 -
26/02:30pm 22.1 - - - - ESE 20 26 11 14 1014.6 1014.6 -
26/02:00pm 21.9 - - - - ESE 22 24 12 13 1014.8 1014.8 -
26/01:30pm 21.8 - - - - ESE 22 26 12 14 1015.1 1015.1 -
26/01:00pm 21.7 - - - - ESE 20 24 11 13 1015.5 1015.5 -
26/12:30pm 21.9 - - - - ESE 19 24 10 13 1016.0 1016.0 -
26/12:00pm 22.1 - - - - ESE 17 22 9 12 1016.4 1016.4 -
26/11:30am 21.9 - - - - SE 13 17 7 9 1016.5 1016.5 -
26/11:00am 21.5 - - - - SE 13 17 7 9 1017.0 1017.0 -
26/10:30am 21.3 - - - - SE 17 22 9 12 1017.2 1017.2 -
26/10:00am 21.3 - - - - SSE 15 20 8 11 1017.6 1017.6 -
26/09:30am 20.9 - - - - SSE 15 19 8 10 1017.6 1017.6 -
26/09:00am 20.7 - - - - S 17 20 9 11 1017.6 1017.6 -
26/08:30am 20.5 - - - - SSE 17 22 9 12 1017.5 1017.5 -
26/08:00am 20.4 - - - - SSE 15 19 8 10 1017.3 1017.3 -
26/07:30am 20.5 - - - - SSE 15 20 8 11 1017.0 1017.0 -
26/07:00am 20.6 - - - - S 19 22 10 12 1016.5 1016.5 -
26/06:30am 20.4 - - - - SSE 19 24 10 13 1016.1 1016.1 -
26/06:00am 20.4 - - - - SSE 19 24 10 13 1015.9 1015.9 -
26/05:30am 20.4 - - - - SSE 17 20 9 11 1015.7 1015.7 -
26/05:00am 20.6 - - - - SSE 17 20 9 11 1015.6 1015.6 -
26/04:30am 20.9 - - - - SSE 22 26 12 14 1015.4 1015.4 -
26/04:00am 21.2 - - - - SSE 20 24 11 13 1015.1 1015.1 -
26/03:30am 21.3 - - - - SSE 17 20 9 11 1015.3 1015.3 -
26/03:00am 21.3 - - - - SE 17 20 9 11 1015.4 1015.4 -
26/02:30am 21.5 - - - - SSE 19 22 10 12 1015.6 1015.6 -
26/02:00am 21.7 - - - - SE 19 26 10 14 1015.7 1015.7 -
26/01:30am 21.8 - - - - SE 24 28 13 15 1016.0 1016.0 -
26/01:00am 22.1 - - - - SE 22 30 12 16 1016.2 1016.2 -
26/12:30am 22.7 - - - - ESE 28 33 15 18 1016.7 1016.7 -
26/12:00am 22.7 - - - - ESE 26 33 14 18 1016.8 1016.8 -
 
Date/Time
EST
Temp
°C
App
Temp
°C
Dew
Point
°C
Rel
Hum
%
Delta-T
°C
Wind Press
QNH
hPa
Press
MSL
hPa
Rain since
9am
mm
Dir  Spd
km/h
Gust
km/h
Spd
kts
Gust
kts
25/11:30pm 22.8 - - - - ESE 26 30 14 16 1017.0 1017.0 -

Other Formats:

Comma delimited format used in spreadsheet applications
http://www.bom.gov.au/fwo/IDQ60801/IDQ60801.94297.axf

JavaScript Object Notation format (JSON) in row-major order
http://www.bom.gov.au/fwo/IDQ60801/IDQ60801.94297.json